sensor_id;sensor_type;location;lat;lon;timestamp;temperature;humidity
21298;DHT22;10808;48.010;11.326;2023-11-21T00:01:03;8.90;99.90
21298;DHT22;10808;48.010;11.326;2023-11-21T00:03:38;8.90;99.90
21298;DHT22;10808;48.010;11.326;2023-11-21T00:06:04;8.90;99.90
21298;DHT22;10808;48.010;11.326;2023-11-21T00:08:30;8.90;99.90
21298;DHT22;10808;48.010;11.326;2023-11-21T00:10:56;8.80;99.90
21298;DHT22;10808;48.010;11.326;2023-11-21T00:13:22;8.80;99.90
21298;DHT22;10808;48.010;11.326;2023-11-21T00:15:48;8.90;99.90
21298;DHT22;10808;48.010;11.326;2023-11-21T00:18:15;8.90;99.90
21298;DHT22;10808;48.010;11.326;2023-11-21T00:20:42;8.90;99.90
21298;DHT22;10808;48.010;11.326;2023-11-21T00:23:08;9.00;99.90
21298;DHT22;10808;48.010;11.326;2023-11-21T00:25:35;8.90;99.90
21298;DHT22;10808;48.010;11.326;2023-11-21T00:28:01;8.90;99.90
21298;DHT22;10808;48.010;11.326;2023-11-21T00:30:29;8.90;99.90
21298;DHT22;10808;48.010;11.326;2023-11-21T00:32:58;8.90;99.90
21298;DHT22;10808;48.010;11.326;2023-11-21T00:35:24;8.90;99.90
21298;DHT22;10808;48.010;11.326;2023-11-21T00:37:50;8.90;99.90
21298;DHT22;10808;48.010;11.326;2023-11-21T00:40:22;8.90;99.90
21298;DHT22;10808;48.010;11.326;2023-11-21T00:42:55;8.90;99.90
21298;DHT22;10808;48.010;11.326;2023-11-21T00:45:21;8.90;99.90
21298;DHT22;10808;48.010;11.326;2023-11-21T00:47:47;8.80;99.90
21298;DHT22;10808;48.010;11.326;2023-11-21T00:50:13;8.80;99.90
21298;DHT22;10808;48.010;11.326;2023-11-21T00:52:40;8.80;99.90
21298;DHT22;10808;48.010;11.326;2023-11-21T00:55:07;8.80;99.90
21298;DHT22;10808;48.010;11.326;2023-11-21T00:57:34;8.70;99.90
21298;DHT22;10808;48.010;11.326;2023-11-21T01:00:00;8.70;99.90
21298;DHT22;10808;48.010;11.326;2023-11-21T01:02:26;8.70;99.90
21298;DHT22;10808;48.010;11.326;2023-11-21T01:04:52;8.70;99.90
21298;DHT22;10808;48.010;11.326;2023-11-21T01:07:18;8.70;99.90
21298;DHT22;10808;48.010;11.326;2023-11-21T01:09:46;8.70;99.90
21298;DHT22;10808;48.010;11.326;2023-11-21T01:12:12;8.60;99.90
21298;DHT22;10808;48.010;11.326;2023-11-21T01:14:38;8.60;99.90
21298;DHT22;10808;48.010;11.326;2023-11-21T01:17:05;8.60;99.90
21298;DHT22;10808;48.010;11.326;2023-11-21T01:19:31;8.50;99.90
21298;DHT22;10808;48.010;11.326;2023-11-21T01:22:09;8.50;99.90
21298;DHT22;10808;48.010;11.326;2023-11-21T01:24:37;8.50;99.90
21298;DHT22;10808;48.010;11.326;2023-11-21T01:27:05;8.50;99.90
21298;DHT22;10808;48.010;11.326;2023-11-21T01:29:31;8.40;99.90
21298;DHT22;10808;48.010;11.326;2023-11-21T01:31:57;8.40;99.90
21298;DHT22;10808;48.010;11.326;2023-11-21T01:34:23;8.30;99.90
21298;DHT22;10808;48.010;11.326;2023-11-21T01:36:49;8.30;99.90
21298;DHT22;10808;48.010;11.326;2023-11-21T01:39:15;8.30;99.90
21298;DHT22;10808;48.010;11.326;2023-11-21T01:41:42;8.20;99.90
21298;DHT22;10808;48.010;11.326;2023-11-21T01:44:13;8.20;99.90
21298;DHT22;10808;48.010;11.326;2023-11-21T01:46:40;8.20;99.90
21298;DHT22;10808;48.010;11.326;2023-11-21T01:49:06;8.20;99.90
21298;DHT22;10808;48.010;11.326;2023-11-21T01:51:32;8.20;99.90
21298;DHT22;10808;48.010;11.326;2023-11-21T01:54:00;8.20;99.90
21298;DHT22;10808;48.010;11.326;2023-11-21T01:56:27;8.10;99.90
21298;DHT22;10808;48.010;11.326;2023-11-21T01:58:54;8.10;99.90
21298;DHT22;10808;48.010;11.326;2023-11-21T02:01:22;8.10;99.90
21298;DHT22;10808;48.010;11.326;2023-11-21T02:03:48;8.10;99.90
21298;DHT22;10808;48.010;11.326;2023-11-21T02:06:14;8.10;99.90
21298;DHT22;10808;48.010;11.326;2023-11-21T02:08:44;8.10;99.90
21298;DHT22;10808;48.010;11.326;2023-11-21T02:11:10;8.20;99.90
21298;DHT22;10808;48.010;11.326;2023-11-21T02:13:40;8.20;99.90
21298;DHT22;10808;48.010;11.326;2023-11-21T02:16:11;8.20;99.90
21298;DHT22;10808;48.010;11.326;2023-11-21T02:18:40;8.20;99.90
21298;DHT22;10808;48.010;11.326;2023-11-21T02:21:07;8.30;99.90
21298;DHT22;10808;48.010;11.326;2023-11-21T02:23:33;8.30;99.90
21298;DHT22;10808;48.010;11.326;2023-11-21T02:26:00;8.30;99.90
21298;DHT22;10808;48.010;11.326;2023-11-21T02:28:31;8.30;99.90
21298;DHT22;10808;48.010;11.326;2023-11-21T02:30:57;8.30;99.90
21298;DHT22;10808;48.010;11.326;2023-11-21T02:33:26;8.30;99.90
21298;DHT22;10808;48.010;11.326;2023-11-21T02:35:54;8.30;99.90
21298;DHT22;10808;48.010;11.326;2023-11-21T02:38:21;8.30;99.90
21298;DHT22;10808;48.010;11.326;2023-11-21T02:40:47;8.30;99.90
21298;DHT22;10808;48.010;11.326;2023-11-21T02:43:14;8.30;99.90
21298;DHT22;10808;48.010;11.326;2023-11-21T02:45:40;8.20;99.90
21298;DHT22;10808;48.010;11.326;2023-11-21T02:48:07;8.30;99.90
21298;DHT22;10808;48.010;11.326;2023-11-21T02:50:37;8.20;99.90
21298;DHT22;10808;48.010;11.326;2023-11-21T02:53:10;8.20;99.90
21298;DHT22;10808;48.010;11.326;2023-11-21T02:55:36;8.20;99.90
21298;DHT22;10808;48.010;11.326;2023-11-21T02:58:03;8.20;99.90
21298;DHT22;10808;48.010;11.326;2023-11-21T03:00:29;8.10;99.90
21298;DHT22;10808;48.010;11.326;2023-11-21T03:03:27;8.10;99.90
21298;DHT22;10808;48.010;11.326;2023-11-21T03:05:53;8.20;99.90
21298;DHT22;10808;48.010;11.326;2023-11-21T03:08:19;8.10;99.90
21298;DHT22;10808;48.010;11.326;2023-11-21T03:10:45;8.10;99.90
21298;DHT22;10808;48.010;11.326;2023-11-21T03:13:11;8.10;99.90
21298;DHT22;10808;48.010;11.326;2023-11-21T03:15:37;8.10;99.90
21298;DHT22;10808;48.010;11.326;2023-11-21T03:18:03;8.10;99.90
21298;DHT22;10808;48.010;11.326;2023-11-21T03:20:31;8.10;99.90
21298;DHT22;10808;48.010;11.326;2023-11-21T03:22:57;8.10;99.90
21298;DHT22;10808;48.010;11.326;2023-11-21T03:25:23;8.10;99.90
21298;DHT22;10808;48.010;11.326;2023-11-21T03:27:49;8.10;99.90
21298;DHT22;10808;48.010;11.326;2023-11-21T03:30:17;8.10;99.90
21298;DHT22;10808;48.010;11.326;2023-11-21T03:32:43;8.00;99.90
21298;DHT22;10808;48.010;11.326;2023-11-21T03:35:10;8.00;99.90
21298;DHT22;10808;48.010;11.326;2023-11-21T03:37:36;8.00;99.90
21298;DHT22;10808;48.010;11.326;2023-11-21T03:40:05;8.00;99.90
21298;DHT22;10808;48.010;11.326;2023-11-21T03:42:34;8.00;99.90
21298;DHT22;10808;48.010;11.326;2023-11-21T03:45:03;8.00;99.90
21298;DHT22;10808;48.010;11.326;2023-11-21T03:47:30;8.00;99.90
21298;DHT22;10808;48.010;11.326;2023-11-21T03:49:56;8.10;99.90
21298;DHT22;10808;48.010;11.326;2023-11-21T03:52:26;8.00;99.90
21298;DHT22;10808;48.010;11.326;2023-11-21T03:55:00;8.00;99.90
21298;DHT22;10808;48.010;11.326;2023-11-21T03:57:26;8.10;99.90
21298;DHT22;10808;48.010;11.326;2023-11-21T03:59:53;8.10;99.90
21298;DHT22;10808;48.010;11.326;2023-11-21T04:02:19;8.10;99.90
21298;DHT22;10808;48.010;11.326;2023-11-21T04:04:45;8.10;99.90
21298;DHT22;10808;48.010;11.326;2023-11-21T04:07:11;8.10;99.90
21298;DHT22;10808;48.010;11.326;2023-11-21T04:09:45;8.10;99.90
21298;DHT22;10808;48.010;11.326;2023-11-21T04:12:11;8.10;99.90
21298;DHT22;10808;48.010;11.326;2023-11-21T04:14:39;8.20;99.90
21298;DHT22;10808;48.010;11.326;2023-11-21T04:17:05;8.20;99.90
21298;DHT22;10808;48.010;11.326;2023-11-21T04:19:31;8.20;99.90
21298;DHT22;10808;48.010;11.326;2023-11-21T04:21:57;8.10;99.90
21298;DHT22;10808;48.010;11.326;2023-11-21T04:24:23;8.20;99.90
21298;DHT22;10808;48.010;11.326;2023-11-21T04:26:49;8.10;99.90
21298;DHT22;10808;48.010;11.326;2023-11-21T04:29:25;8.00;99.90
21298;DHT22;10808;48.010;11.326;2023-11-21T04:31:52;8.10;99.90
21298;DHT22;10808;48.010;11.326;2023-11-21T04:34:20;8.00;99.90
21298;DHT22;10808;48.010;11.326;2023-11-21T04:36:46;8.00;99.90
21298;DHT22;10808;48.010;11.326;2023-11-21T04:39:12;8.00;99.90
21298;DHT22;10808;48.010;11.326;2023-11-21T04:41:38;8.00;99.90
21298;DHT22;10808;48.010;11.326;2023-11-21T04:44:08;8.00;99.90
21298;DHT22;10808;48.010;11.326;2023-11-21T04:46:34;8.00;99.90
21298;DHT22;10808;48.010;11.326;2023-11-21T04:49:00;7.90;99.90
21298;DHT22;10808;48.010;11.326;2023-11-21T04:51:28;7.90;99.90
21298;DHT22;10808;48.010;11.326;2023-11-21T04:53:54;7.90;99.90
21298;DHT22;10808;48.010;11.326;2023-11-21T04:56:20;7.90;99.90
21298;DHT22;10808;48.010;11.326;2023-11-21T04:58:46;7.80;99.90
21298;DHT22;10808;48.010;11.326;2023-11-21T05:01:12;7.90;99.90
21298;DHT22;10808;48.010;11.326;2023-11-21T05:03:42;7.90;99.90
21298;DHT22;10808;48.010;11.326;2023-11-21T05:06:11;7.90;99.90
21298;DHT22;10808;48.010;11.326;2023-11-21T05:08:37;7.90;99.90
21298;DHT22;10808;48.010;11.326;2023-11-21T05:11:03;7.90;99.90
21298;DHT22;10808;48.010;11.326;2023-11-21T05:13:35;7.90;99.90
21298;DHT22;10808;48.010;11.326;2023-11-21T05:16:02;7.90;99.90
21298;DHT22;10808;48.010;11.326;2023-11-21T05:18:30;7.90;99.90
21298;DHT22;10808;48.010;11.326;2023-11-21T05:20:57;8.00;99.90
21298;DHT22;10808;48.010;11.326;2023-11-21T05:23:23;7.90;99.90
21298;DHT22;10808;48.010;11.326;2023-11-21T05:25:50;7.90;99.90
21298;DHT22;10808;48.010;11.326;2023-11-21T05:28:16;7.90;99.90
21298;DHT22;10808;48.010;11.326;2023-11-21T05:30:51;7.90;99.90
21298;DHT22;10808;48.010;11.326;2023-11-21T05:33:17;7.90;99.90
21298;DHT22;10808;48.010;11.326;2023-11-21T05:35:43;8.00;99.90
21298;DHT22;10808;48.010;11.326;2023-11-21T05:38:09;8.00;99.90
21298;DHT22;10808;48.010;11.326;2023-11-21T05:40:35;7.90;99.90
21298;DHT22;10808;48.010;11.326;2023-11-21T05:43:02;8.00;99.90
21298;DHT22;10808;48.010;11.326;2023-11-21T05:45:28;7.90;99.90
21298;DHT22;10808;48.010;11.326;2023-11-21T05:47:55;7.90;99.90
21298;DHT22;10808;48.010;11.326;2023-11-21T05:50:21;7.90;99.90
21298;DHT22;10808;48.010;11.326;2023-11-21T05:52:51;7.90;99.90
21298;DHT22;10808;48.010;11.326;2023-11-21T05:55:18;7.80;99.90
21298;DHT22;10808;48.010;11.326;2023-11-21T05:57:46;7.80;99.90
21298;DHT22;10808;48.010;11.326;2023-11-21T06:00:15;7.70;99.90
21298;DHT22;10808;48.010;11.326;2023-11-21T06:03:18;7.70;99.90
21298;DHT22;10808;48.010;11.326;2023-11-21T06:05:47;7.70;99.90
21298;DHT22;10808;48.010;11.326;2023-11-21T06:08:24;7.70;99.90
21298;DHT22;10808;48.010;11.326;2023-11-21T06:10:50;7.70;99.90
21298;DHT22;10808;48.010;11.326;2023-11-21T06:13:16;7.70;99.90
21298;DHT22;10808;48.010;11.326;2023-11-21T06:15:45;7.70;99.90
21298;DHT22;10808;48.010;11.326;2023-11-21T06:18:11;7.60;99.90
21298;DHT22;10808;48.010;11.326;2023-11-21T06:20:37;7.60;99.90
21298;DHT22;10808;48.010;11.326;2023-11-21T06:23:03;7.60;99.90
21298;DHT22;10808;48.010;11.326;2023-11-21T06:25:29;7.60;99.90
21298;DHT22;10808;48.010;11.326;2023-11-21T06:27:58;7.60;99.90
21298;DHT22;10808;48.010;11.326;2023-11-21T06:30:24;7.60;99.90
21298;DHT22;10808;48.010;11.326;2023-11-21T06:32:51;7.60;99.90
21298;DHT22;10808;48.010;11.326;2023-11-21T06:35:19;7.60;99.90
21298;DHT22;10808;48.010;11.326;2023-11-21T06:37:46;7.60;99.90
21298;DHT22;10808;48.010;11.326;2023-11-21T06:40:14;7.60;99.90
21298;DHT22;10808;48.010;11.326;2023-11-21T06:42:41;7.60;99.90
21298;DHT22;10808;48.010;11.326;2023-11-21T06:45:24;7.60;99.90
21298;DHT22;10808;48.010;11.326;2023-11-21T06:47:50;7.60;99.90
21298;DHT22;10808;48.010;11.326;2023-11-21T06:50:17;7.60;99.90
21298;DHT22;10808;48.010;11.326;2023-11-21T06:52:44;7.60;99.90
21298;DHT22;10808;48.010;11.326;2023-11-21T06:55:10;7.60;99.90
21298;DHT22;10808;48.010;11.326;2023-11-21T06:57:37;7.60;99.90
21298;DHT22;10808;48.010;11.326;2023-11-21T07:00:04;7.60;99.90
21298;DHT22;10808;48.010;11.326;2023-11-21T07:02:31;7.60;99.90
21298;DHT22;10808;48.010;11.326;2023-11-21T07:04:57;7.60;99.90
21298;DHT22;10808;48.010;11.326;2023-11-21T07:07:23;7.60;99.90
21298;DHT22;10808;48.010;11.326;2023-11-21T07:09:49;7.60;99.90
21298;DHT22;10808;48.010;11.326;2023-11-21T07:12:15;7.60;99.90
21298;DHT22;10808;48.010;11.326;2023-11-21T07:14:42;7.60;99.90
21298;DHT22;10808;48.010;11.326;2023-11-21T07:17:11;7.60;99.90
21298;DHT22;10808;48.010;11.326;2023-11-21T07:19:40;7.70;99.90
21298;DHT22;10808;48.010;11.326;2023-11-21T07:22:07;7.60;99.90
21298;DHT22;10808;48.010;11.326;2023-11-21T07:24:34;7.60;99.90
21298;DHT22;10808;48.010;11.326;2023-11-21T07:27:01;7.70;99.90
21298;DHT22;10808;48.010;11.326;2023-11-21T07:29:27;7.70;99.90
21298;DHT22;10808;48.010;11.326;2023-11-21T07:31:55;7.70;99.90
21298;DHT22;10808;48.010;11.326;2023-11-21T07:34:21;7.80;99.90
21298;DHT22;10808;48.010;11.326;2023-11-21T07:36:47;7.70;99.90
21298;DHT22;10808;48.010;11.326;2023-11-21T07:39:13;7.70;99.90
21298;DHT22;10808;48.010;11.326;2023-11-21T07:41:44;7.70;99.90
21298;DHT22;10808;48.010;11.326;2023-11-21T07:44:15;7.70;99.90
21298;DHT22;10808;48.010;11.326;2023-11-21T07:46:42;7.70;99.90
21298;DHT22;10808;48.010;11.326;2023-11-21T07:49:10;7.70;99.90
21298;DHT22;10808;48.010;11.326;2023-11-21T07:51:36;7.80;99.90
21298;DHT22;10808;48.010;11.326;2023-11-21T07:54:02;7.80;99.90
21298;DHT22;10808;48.010;11.326;2023-11-21T07:56:28;7.90;99.90
21298;DHT22;10808;48.010;11.326;2023-11-21T07:58:54;7.90;99.90
21298;DHT22;10808;48.010;11.326;2023-11-21T08:01:20;7.90;99.90
21298;DHT22;10808;48.010;11.326;2023-11-21T08:03:46;7.90;99.90
21298;DHT22;10808;48.010;11.326;2023-11-21T08:06:17;7.90;99.90
21298;DHT22;10808;48.010;11.326;2023-11-21T08:08:45;7.90;99.90
21298;DHT22;10808;48.010;11.326;2023-11-21T08:11:13;7.90;99.90
21298;DHT22;10808;48.010;11.326;2023-11-21T08:13:40;8.00;99.90
21298;DHT22;10808;48.010;11.326;2023-11-21T08:16:06;8.00;99.90
21298;DHT22;10808;48.010;11.326;2023-11-21T08:18:33;8.00;99.90
21298;DHT22;10808;48.010;11.326;2023-11-21T08:21:00;7.90;99.90
21298;DHT22;10808;48.010;11.326;2023-11-21T08:23:26;7.90;99.90
21298;DHT22;10808;48.010;11.326;2023-11-21T08:25:53;8.00;99.90
21298;DHT22;10808;48.010;11.326;2023-11-21T08:28:19;8.00;99.90
21298;DHT22;10808;48.010;11.326;2023-11-21T08:30:45;8.00;99.90
21298;DHT22;10808;48.010;11.326;2023-11-21T08:33:11;8.00;99.90
21298;DHT22;10808;48.010;11.326;2023-11-21T08:35:38;8.00;99.90
21298;DHT22;10808;48.010;11.326;2023-11-21T08:38:11;7.90;99.90
21298;DHT22;10808;48.010;11.326;2023-11-21T08:40:38;8.00;99.90
21298;DHT22;10808;48.010;11.326;2023-11-21T08:43:05;8.00;99.90
21298;DHT22;10808;48.010;11.326;2023-11-21T08:45:31;8.00;99.90
21298;DHT22;10808;48.010;11.326;2023-11-21T08:48:00;8.00;99.90
21298;DHT22;10808;48.010;11.326;2023-11-21T08:50:27;8.00;99.90
21298;DHT22;10808;48.010;11.326;2023-11-21T08:52:53;8.10;99.90
21298;DHT22;10808;48.010;11.326;2023-11-21T08:55:19;8.10;99.90
21298;DHT22;10808;48.010;11.326;2023-11-21T08:57:45;8.20;99.90
21298;DHT22;10808;48.010;11.326;2023-11-21T09:00:14;8.20;99.90
21298;DHT22;10808;48.010;11.326;2023-11-21T09:02:43;8.20;99.90
21298;DHT22;10808;48.010;11.326;2023-11-21T09:05:15;8.20;99.90
21298;DHT22;10808;48.010;11.326;2023-11-21T09:07:44;8.20;99.90
21298;DHT22;10808;48.010;11.326;2023-11-21T09:10:12;8.30;99.90
21298;DHT22;10808;48.010;11.326;2023-11-21T09:12:38;8.30;99.90
21298;DHT22;10808;48.010;11.326;2023-11-21T09:15:05;8.40;99.90
21298;DHT22;10808;48.010;11.326;2023-11-21T09:17:33;8.40;99.90
21298;DHT22;10808;48.010;11.326;2023-11-21T09:20:00;8.40;99.90
21298;DHT22;10808;48.010;11.326;2023-11-21T09:22:26;8.40;99.90
21298;DHT22;10808;48.010;11.326;2023-11-21T09:24:52;8.50;99.90
21298;DHT22;10808;48.010;11.326;2023-11-21T09:27:19;8.50;99.90
21298;DHT22;10808;48.010;11.326;2023-11-21T09:29:45;8.50;99.90
21298;DHT22;10808;48.010;11.326;2023-11-21T09:32:15;8.50;99.90
21298;DHT22;10808;48.010;11.326;2023-11-21T09:34:42;8.60;99.90
21298;DHT22;10808;48.010;11.326;2023-11-21T09:37:08;8.60;99.90
21298;DHT22;10808;48.010;11.326;2023-11-21T09:39:34;8.70;99.90
21298;DHT22;10808;48.010;11.326;2023-11-21T09:42:25;8.70;99.90
21298;DHT22;10808;48.010;11.326;2023-11-21T09:45:03;8.70;99.90
21298;DHT22;10808;48.010;11.326;2023-11-21T09:47:32;8.70;99.90
21298;DHT22;10808;48.010;11.326;2023-11-21T09:50:02;8.70;99.90
21298;DHT22;10808;48.010;11.326;2023-11-21T09:52:28;8.70;99.90
21298;DHT22;10808;48.010;11.326;2023-11-21T09:54:55;8.80;99.90
21298;DHT22;10808;48.010;11.326;2023-11-21T09:57:25;8.80;99.90
21298;DHT22;10808;48.010;11.326;2023-11-21T09:59:52;8.90;99.90
21298;DHT22;10808;48.010;11.326;2023-11-21T10:02:28;8.90;99.90
21298;DHT22;10808;48.010;11.326;2023-11-21T10:04:56;9.00;99.90
21298;DHT22;10808;48.010;11.326;2023-11-21T10:07:23;9.00;99.90
21298;DHT22;10808;48.010;11.326;2023-11-21T10:09:50;9.10;99.90
21298;DHT22;10808;48.010;11.326;2023-11-21T10:12:17;9.10;99.90
21298;DHT22;10808;48.010;11.326;2023-11-21T10:14:48;9.20;99.90
21298;DHT22;10808;48.010;11.326;2023-11-21T10:17:15;9.20;99.90
21298;DHT22;10808;48.010;11.326;2023-11-21T10:19:47;9.20;99.90
21298;DHT22;10808;48.010;11.326;2023-11-21T10:22:15;9.20;99.90
21298;DHT22;10808;48.010;11.326;2023-11-21T10:24:41;9.20;99.90
21298;DHT22;10808;48.010;11.326;2023-11-21T10:27:09;9.30;99.90
21298;DHT22;10808;48.010;11.326;2023-11-21T10:29:35;9.30;99.90
21298;DHT22;10808;48.010;11.326;2023-11-21T10:32:04;9.30;99.90
21298;DHT22;10808;48.010;11.326;2023-11-21T10:34:31;9.40;99.90
21298;DHT22;10808;48.010;11.326;2023-11-21T10:36:57;9.40;99.90
21298;DHT22;10808;48.010;11.326;2023-11-21T10:39:24;9.50;99.90
21298;DHT22;10808;48.010;11.326;2023-11-21T10:41:55;9.50;99.90
21298;DHT22;10808;48.010;11.326;2023-11-21T10:44:21;9.60;99.90
21298;DHT22;10808;48.010;11.326;2023-11-21T10:46:53;9.60;99.90
21298;DHT22;10808;48.010;11.326;2023-11-21T10:49:22;9.60;99.90
21298;DHT22;10808;48.010;11.326;2023-11-21T10:51:51;9.70;99.90
21298;DHT22;10808;48.010;11.326;2023-11-21T10:54:23;9.70;99.90
21298;DHT22;10808;48.010;11.326;2023-11-21T10:56:56;9.60;99.90
21298;DHT22;10808;48.010;11.326;2023-11-21T10:59:22;9.70;99.90
21298;DHT22;10808;48.010;11.326;2023-11-21T11:01:51;9.70;99.90
21298;DHT22;10808;48.010;11.326;2023-11-21T11:04:19;9.70;99.90
21298;DHT22;10808;48.010;11.326;2023-11-21T11:06:55;9.80;99.90
21298;DHT22;10808;48.010;11.326;2023-11-21T11:09:23;9.70;99.90
21298;DHT22;10808;48.010;11.326;2023-11-21T11:11:51;9.80;99.90
21298;DHT22;10808;48.010;11.326;2023-11-21T11:14:18;9.70;99.90
21298;DHT22;10808;48.010;11.326;2023-11-21T11:16:45;9.80;99.90
21298;DHT22;10808;48.010;11.326;2023-11-21T11:19:11;9.80;99.90
21298;DHT22;10808;48.010;11.326;2023-11-21T11:27:58;9.90;99.90
21298;DHT22;10808;48.010;11.326;2023-11-21T11:30:43;9.90;99.90
21298;DHT22;10808;48.010;11.326;2023-11-21T11:33:36;10.00;99.90
21298;DHT22;10808;48.010;11.326;2023-11-21T11:36:18;10.00;99.90
21298;DHT22;10808;48.010;11.326;2023-11-21T11:38:47;9.90;99.90
21298;DHT22;10808;48.010;11.326;2023-11-21T11:41:29;10.00;99.90
21298;DHT22;10808;48.010;11.326;2023-11-21T11:43:59;10.00;99.90
21298;DHT22;10808;48.010;11.326;2023-11-21T11:46:43;10.00;99.90
21298;DHT22;10808;48.010;11.326;2023-11-21T11:49:11;10.00;99.90
21298;DHT22;10808;48.010;11.326;2023-11-21T11:54:53;10.10;99.90
21298;DHT22;10808;48.010;11.326;2023-11-21T11:57:24;10.10;99.90
21298;DHT22;10808;48.010;11.326;2023-11-21T12:02:45;10.10;99.90
21298;DHT22;10808;48.010;11.326;2023-11-21T12:05:13;10.10;99.90
21298;DHT22;10808;48.010;11.326;2023-11-21T12:07:46;10.10;99.90
21298;DHT22;10808;48.010;11.326;2023-11-21T12:10:18;10.10;99.90
21298;DHT22;10808;48.010;11.326;2023-11-21T12:12:46;10.20;99.90
21298;DHT22;10808;48.010;11.326;2023-11-21T12:15:12;10.20;99.90
21298;DHT22;10808;48.010;11.326;2023-11-21T12:17:41;10.20;99.90
21298;DHT22;10808;48.010;11.326;2023-11-21T12:20:08;10.20;99.90
21298;DHT22;10808;48.010;11.326;2023-11-21T12:22:47;10.30;99.90
21298;DHT22;10808;48.010;11.326;2023-11-21T12:25:18;10.20;99.90
21298;DHT22;10808;48.010;11.326;2023-11-21T12:27:49;10.20;99.90
21298;DHT22;10808;48.010;11.326;2023-11-21T12:30:17;10.30;99.90
21298;DHT22;10808;48.010;11.326;2023-11-21T12:32:44;10.30;99.90
21298;DHT22;10808;48.010;11.326;2023-11-21T12:35:12;10.40;99.90
21298;DHT22;10808;48.010;11.326;2023-11-21T12:37:39;10.40;99.90
21298;DHT22;10808;48.010;11.326;2023-11-21T12:40:07;10.50;99.90
21298;DHT22;10808;48.010;11.326;2023-11-21T12:42:41;10.60;99.90
21298;DHT22;10808;48.010;11.326;2023-11-21T12:45:22;10.60;99.90
21298;DHT22;10808;48.010;11.326;2023-11-21T12:47:59;10.70;99.90
21298;DHT22;10808;48.010;11.326;2023-11-21T12:50:27;10.70;99.90
21298;DHT22;10808;48.010;11.326;2023-11-21T12:53:02;10.70;99.90
21298;DHT22;10808;48.010;11.326;2023-11-21T12:55:32;10.70;99.90
21298;DHT22;10808;48.010;11.326;2023-11-21T12:57:59;10.70;99.90
21298;DHT22;10808;48.010;11.326;2023-11-21T13:00:44;10.70;99.90
21298;DHT22;10808;48.010;11.326;2023-11-21T13:03:12;10.80;99.90
21298;DHT22;10808;48.010;11.326;2023-11-21T13:05:43;10.80;99.90
21298;DHT22;10808;48.010;11.326;2023-11-21T13:08:13;10.80;99.90
21298;DHT22;10808;48.010;11.326;2023-11-21T13:10:40;10.70;99.90
21298;DHT22;10808;48.010;11.326;2023-11-21T13:13:10;10.80;99.90
21298;DHT22;10808;48.010;11.326;2023-11-21T13:15:40;10.90;99.90
21298;DHT22;10808;48.010;11.326;2023-11-21T13:18:09;10.90;99.90
21298;DHT22;10808;48.010;11.326;2023-11-21T13:20:36;10.90;99.90
21298;DHT22;10808;48.010;11.326;2023-11-21T13:23:07;11.00;99.90
21298;DHT22;10808;48.010;11.326;2023-11-21T13:25:34;11.10;99.90
21298;DHT22;10808;48.010;11.326;2023-11-21T13:28:00;11.20;99.90
21298;DHT22;10808;48.010;11.326;2023-11-21T13:30:27;11.20;99.90
21298;DHT22;10808;48.010;11.326;2023-11-21T13:33:01;11.30;99.90
21298;DHT22;10808;48.010;11.326;2023-11-21T13:35:36;11.40;99.90
21298;DHT22;10808;48.010;11.326;2023-11-21T13:38:14;11.40;99.90
21298;DHT22;10808;48.010;11.326;2023-11-21T13:40:41;11.50;99.90
21298;DHT22;10808;48.010;11.326;2023-11-21T13:43:15;11.50;99.90
21298;DHT22;10808;48.010;11.326;2023-11-21T13:45:43;11.50;99.90
21298;DHT22;10808;48.010;11.326;2023-11-21T13:48:10;11.50;99.90
21298;DHT22;10808;48.010;11.326;2023-11-21T13:50:40;11.50;99.90
21298;DHT22;10808;48.010;11.326;2023-11-21T13:53:14;11.40;99.90
21298;DHT22;10808;48.010;11.326;2023-11-21T13:55:51;11.40;99.90
21298;DHT22;10808;48.010;11.326;2023-11-21T13:58:24;11.30;99.90
21298;DHT22;10808;48.010;11.326;2023-11-21T14:01:13;11.30;99.90
21298;DHT22;10808;48.010;11.326;2023-11-21T14:03:51;11.20;99.90
21298;DHT22;10808;48.010;11.326;2023-11-21T14:06:28;11.10;99.90
21298;DHT22;10808;48.010;11.326;2023-11-21T14:09:00;11.10;99.90
21298;DHT22;10808;48.010;11.326;2023-11-21T14:11:31;11.10;99.90
21298;DHT22;10808;48.010;11.326;2023-11-21T14:13:57;11.10;99.90
21298;DHT22;10808;48.010;11.326;2023-11-21T14:16:25;11.10;99.90
21298;DHT22;10808;48.010;11.326;2023-11-21T14:18:51;11.10;99.90
21298;DHT22;10808;48.010;11.326;2023-11-21T14:21:27;11.10;99.90
21298;DHT22;10808;48.010;11.326;2023-11-21T14:23:53;10.90;99.90
21298;DHT22;10808;48.010;11.326;2023-11-21T14:26:21;10.90;99.90
21298;DHT22;10808;48.010;11.326;2023-11-21T14:28:49;10.90;99.90
21298;DHT22;10808;48.010;11.326;2023-11-21T14:31:15;10.90;99.90
21298;DHT22;10808;48.010;11.326;2023-11-21T14:33:44;10.80;99.90
21298;DHT22;10808;48.010;11.326;2023-11-21T14:36:10;10.70;99.90
21298;DHT22;10808;48.010;11.326;2023-11-21T14:38:39;10.60;99.90
21298;DHT22;10808;48.010;11.326;2023-11-21T14:41:08;10.60;99.90
21298;DHT22;10808;48.010;11.326;2023-11-21T14:43:37;10.70;99.90
21298;DHT22;10808;48.010;11.326;2023-11-21T14:46:04;10.60;99.90
21298;DHT22;10808;48.010;11.326;2023-11-21T14:48:34;10.70;99.90
21298;DHT22;10808;48.010;11.326;2023-11-21T14:51:09;10.70;99.90
21298;DHT22;10808;48.010;11.326;2023-11-21T14:53:41;10.70;99.90
21298;DHT22;10808;48.010;11.326;2023-11-21T14:56:20;10.70;99.90
21298;DHT22;10808;48.010;11.326;2023-11-21T14:58:57;10.70;99.90
21298;DHT22;10808;48.010;11.326;2023-11-21T15:01:24;10.70;99.90
21298;DHT22;10808;48.010;11.326;2023-11-21T15:04:10;10.70;99.90
21298;DHT22;10808;48.010;11.326;2023-11-21T15:06:48;10.60;99.90
21298;DHT22;10808;48.010;11.326;2023-11-21T15:09:14;10.60;99.90
21298;DHT22;10808;48.010;11.326;2023-11-21T15:11:40;10.60;99.90
21298;DHT22;10808;48.010;11.326;2023-11-21T15:14:07;10.50;99.90
21298;DHT22;10808;48.010;11.326;2023-11-21T15:16:35;10.50;99.90
21298;DHT22;10808;48.010;11.326;2023-11-21T15:19:08;10.40;99.90
21298;DHT22;10808;48.010;11.326;2023-11-21T15:21:38;10.40;99.90
21298;DHT22;10808;48.010;11.326;2023-11-21T15:24:04;10.30;99.90
21298;DHT22;10808;48.010;11.326;2023-11-21T15:26:32;10.30;99.90
21298;DHT22;10808;48.010;11.326;2023-11-21T15:28:58;10.30;99.90
21298;DHT22;10808;48.010;11.326;2023-11-21T15:31:24;10.30;99.90
21298;DHT22;10808;48.010;11.326;2023-11-21T15:33:51;10.20;99.90
21298;DHT22;10808;48.010;11.326;2023-11-21T15:36:19;10.20;99.90
21298;DHT22;10808;48.010;11.326;2023-11-21T15:38:45;10.10;99.90
21298;DHT22;10808;48.010;11.326;2023-11-21T15:41:11;10.10;99.90
21298;DHT22;10808;48.010;11.326;2023-11-21T15:43:37;10.10;99.90
21298;DHT22;10808;48.010;11.326;2023-11-21T15:46:03;10.00;99.90
21298;DHT22;10808;48.010;11.326;2023-11-21T15:48:34;10.00;99.90